Time;durP1;ratioP1;P1;durP2;ratioP2;P2;SDS_P1;SDS_P2;PMS_P1;PMS_P2;Temp;Humidity;BMP_temperature;BMP_pressure;BME280_temperature;BME280_humidity;BME280_pressure;Samples;Min_cycle;Max_cycle;Signal;HPM_P1;HPM_P2
2024/03/26 00:00:47;;;;;;;;;;;;;;;20.11;47.29;100022.09;2059105;28;6317;-68
2024/03/26 00:01:48;;;;;;;;;;;;;;;20.11;47.28;100016.34;2059884;28;2215;-67
2024/03/26 00:02:48;;;;;;;;;;;;;;;20.11;47.25;100017.06;2068389;28;2216;-67
2024/03/26 00:03:49;;;;;;;;;;;;;;;20.11;47.38;100016.34;2069006;28;1750;-68
2024/03/26 00:04:50;;;;;;;;;;;;;;;20.11;47.25;100017.06;2059103;28;2154;-68
2024/03/26 00:05:51;;;;;;;;;;;;;;;20.09;47.09;100017.75;2059777;28;2456;-68
2024/03/26 00:06:51;;;;;;;;;;;;;;;20.11;47.24;100013.47;2062359;28;1668;-68
2024/03/26 00:07:52;;;;;;;;;;;;;;;20.08;47.19;100013.41;2060875;28;2131;-67
2024/03/26 00:08:52;;;;;;;;;;;;;;;20.09;47.15;100017.75;2060293;28;2017;-67
2024/03/26 00:09:53;;;;;;;;;;;;;;;20.09;47.14;100009.13;2064547;28;2162;-67
2024/03/26 00:10:53;;;;;;;;;;;;;;;20.08;47.10;100019.16;2059310;28;2158;-68
2024/03/26 00:11:53;;;;;;;;;;;;;;;20.08;47.13;100009.78;2062002;28;2462;-67
2024/03/26 00:12:54;;;;;;;;;;;;;;;20.07;47.12;100017.69;2060982;28;2043;-67
2024/03/26 00:13:56;;;;;;;;;;;;;;;20.07;47.13;100006.19;2060630;28;2180;-68
2024/03/26 00:14:56;;;;;;;;;;;;;;;20.07;47.00;100011.94;2054871;28;2192;-67
2024/03/26 00:15:57;;;;;;;;;;;;;;;20.07;47.06;100011.94;2062087;28;2150;-67
2024/03/26 00:16:57;;;;;;;;;;;;;;;20.06;47.03;100016.19;2059939;28;1752;-67
2024/03/26 00:17:58;;;;;;;;;;;;;;;20.08;47.08;100018.41;2061841;28;1692;-68
2024/03/26 00:18:58;;;;;;;;;;;;;;;20.08;47.28;100015.53;2058151;28;2119;-67
2024/03/26 00:19:58;;;;;;;;;;;;;;;20.07;47.14;100011.22;2060687;28;1638;-68
2024/03/26 00:20:59;;;;;;;;;;;;;;;20.07;47.17;100011.94;2058554;28;2232;-67
2024/03/26 00:21:59;;;;;;;;;;;;;;;20.08;47.00;100004.06;2060947;28;1613;-67
2024/03/26 00:23:00;;;;;;;;;;;;;;;20.09;47.00;100008.41;2060612;28;2307;-68
2024/03/26 00:24:00;;;;;;;;;;;;;;;20.08;47.17;100007.66;2060664;28;2083;-67
2024/03/26 00:25:00;;;;;;;;;;;;;;;20.08;47.26;100019.16;2060772;28;1874;-68
2024/03/26 00:26:01;;;;;;;;;;;;;;;20.08;47.14;100013.41;2062170;28;1605;-69
2024/03/26 00:27:01;;;;;;;;;;;;;;;20.10;47.14;100009.88;2060729;28;1748;-68
2024/03/26 00:28:02;;;;;;;;;;;;;;;20.11;47.25;100010.59;2061489;28;2035;-67
2024/03/26 00:29:02;;;;;;;;;;;;;;;20.09;47.19;100000.53;2061591;28;2118;-68
2024/03/26 00:30:03;;;;;;;;;;;;;;;20.11;47.18;100004.84;2058626;28;6177;-67
2024/03/26 00:31:03;;;;;;;;;;;;;;;20.12;47.32;100003.47;2058971;28;2501;-68
2024/03/26 00:32:04;;;;;;;;;;;;;;;20.12;47.10;100006.34;2069758;28;1620;-67
2024/03/26 00:33:04;;;;;;;;;;;;;;;20.11;47.15;100002.69;2060145;28;2163;-68
2024/03/26 00:34:04;;;;;;;;;;;;;;;20.12;47.05;100006.34;2060445;28;2335;-67
2024/03/26 00:35:05;;;;;;;;;;;;;;;20.12;47.26;100006.34;2060589;28;2182;-67
2024/03/26 00:36:05;;;;;;;;;;;;;;;20.12;47.28;100000.59;2069451;28;2330;-67
2024/03/26 00:37:06;;;;;;;;;;;;;;;20.13;47.17;99999.16;2060113;28;2589;-68
2024/03/26 00:38:06;;;;;;;;;;;;;;;20.11;47.16;100004.84;2060012;28;2002;-67
2024/03/26 00:39:08;;;;;;;;;;;;;;;20.11;47.30;99996.97;2061489;28;2060;-68
2024/03/26 00:40:08;;;;;;;;;;;;;;;20.11;47.34;99996.97;2060228;28;1909;-67
2024/03/26 00:41:09;;;;;;;;;;;;;;;20.12;47.18;99997.72;2065344;28;2210;-67
2024/03/26 00:42:09;;;;;;;;;;;;;;;20.11;47.28;99999.09;2067391;28;1616;-67
2024/03/26 00:43:10;;;;;;;;;;;;;;;20.11;47.07;99999.09;2060292;28;2035;-67
2024/03/26 00:44:10;;;;;;;;;;;;;;;20.09;47.20;99997.66;2067940;28;1644;-67
2024/03/26 00:45:10;;;;;;;;;;;;;;;20.10;47.17;99992.63;2067105;28;2130;-67
2024/03/26 00:46:11;;;;;;;;;;;;;;;20.11;47.31;99993.34;2061156;28;2096;-68
2024/03/26 00:47:11;;;;;;;;;;;;;;;20.09;47.30;99994.78;2067058;28;2255;-68
2024/03/26 00:48:12;;;;;;;;;;;;;;;20.09;47.15;99986.16;2068556;28;2335;-68
2024/03/26 00:49:12;;;;;;;;;;;;;;;20.09;47.18;99991.91;2059442;28;2203;-68
2024/03/26 00:50:13;;;;;;;;;;;;;;;20.09;47.26;99986.16;2060536;28;2051;-67
2024/03/26 00:51:13;;;;;;;;;;;;;;;20.09;47.11;99991.91;2059502;28;2297;-68
2024/03/26 00:52:14;;;;;;;;;;;;;;;20.09;47.30;99991.91;2060788;28;1696;-67
2024/03/26 00:53:14;;;;;;;;;;;;;;;20.09;47.17;99989.03;2058984;28;2057;-68
2024/03/26 00:54:14;;;;;;;;;;;;;;;20.07;47.21;99985.34;2067613;28;1639;-67
2024/03/26 00:55:15;;;;;;;;;;;;;;;20.08;47.45;99983.94;2067167;28;2111;-68
2024/03/26 00:56:15;;;;;;;;;;;;;;;20.08;47.15;99995.44;2060710;28;2575;-67
2024/03/26 00:57:16;;;;;;;;;;;;;;;20.06;47.25;99993.22;2061190;28;1724;-67
2024/03/26 00:58:16;;;;;;;;;;;;;;;20.05;47.14;99983.13;2066921;28;1604;-68
2024/03/26 00:59:17;;;;;;;;;;;;;;;20.06;47.13;99989.59;2067568;28;2222;-68
2024/03/26 01:00:17;;;;;;;;;;;;;;;20.06;47.14;99990.34;2057578;28;6308;-68
2024/03/26 01:01:18;;;;;;;;;;;;;;;20.06;47.22;99987.47;2061194;28;2303;-67
2024/03/26 01:02:18;;;;;;;;;;;;;;;20.05;47.02;99988.16;2061533;28;2175;-68
2024/03/26 01:03:19;;;;;;;;;;;;;;;20.05;47.10;99986.00;2061564;28;1674;-67
2024/03/26 01:04:19;;;;;;;;;;;;;;;20.06;47.13;99986.72;2060961;28;2536;-67
2024/03/26 01:05:19;;;;;;;;;;;;;;;20.06;47.01;99998.22;2060048;28;2030;-67
2024/03/26 01:06:20;;;;;;;;;;;;;;;20.06;46.99;99986.72;2066698;28;2279;-70
2024/03/26 01:07:20;;;;;;;;;;;;;;;20.06;47.23;99986.72;2062154;28;2239;-67
2024/03/26 01:08:21;;;;;;;;;;;;;;;20.06;47.03;99987.47;2061870;28;2105;-67
2024/03/26 01:09:22;;;;;;;;;;;;;;;20.05;47.18;99986.00;2061472;28;2108;-67
2024/03/26 01:10:22;;;;;;;;;;;;;;;20.06;47.11;99984.59;2059314;28;2231;-68
2024/03/26 01:11:23;;;;;;;;;;;;;;;20.07;47.25;99994.69;2060168;28;2560;-67
2024/03/26 01:12:23;;;;;;;;;;;;;;;20.07;47.22;99991.81;2059300;28;2147;-67
2024/03/26 01:13:24;;;;;;;;;;;;;;;20.07;47.23;99988.94;2061447;28;1730;-67
2024/03/26 01:14:24;;;;;;;;;;;;;;;20.07;47.26;99980.31;2061026;28;2144;-68
2024/03/26 01:15:25;;;;;;;;;;;;;;;20.08;47.28;99989.69;2059290;28;2266;-68
2024/03/26 01:16:25;;;;;;;;;;;;;;;20.08;47.25;99978.91;2061408;28;1950;-68
2024/03/26 01:17:26;;;;;;;;;;;;;;;20.09;47.32;99973.91;2061197;28;2124;-67
2024/03/26 01:18:26;;;;;;;;;;;;;;;20.08;47.38;99990.41;2061760;28;1685;-68
2024/03/26 01:19:26;;;;;;;;;;;;;;;20.08;47.43;99987.53;2059363;28;2097;-67
2024/03/26 01:20:27;;;;;;;;;;;;;;;20.08;47.39;99981.78;2060744;28;1668;-68
2024/03/26 01:21:27;;;;;;;;;;;;;;;20.09;47.39;99991.91;2059595;28;2864;-67
2024/03/26 01:22:28;;;;;;;;;;;;;;;20.09;47.47;99986.16;2060872;28;1676;-68
2024/03/26 01:23:28;;;;;;;;;;;;;;;20.09;47.31;99983.28;2067579;28;2344;-68
2024/03/26 01:24:28;;;;;;;;;;;;;;;20.09;47.51;99976.78;2060434;28;1770;-67
2024/03/26 01:25:29;;;;;;;;;;;;;;;20.08;47.34;99978.91;2067211;28;2099;-67
2024/03/26 01:26:29;;;;;;;;;;;;;;;20.08;47.56;99976.03;2068540;28;2215;-67
2024/03/26 01:27:30;;;;;;;;;;;;;;;20.08;47.32;99973.16;2058425;28;2338;-67
2024/03/26 01:28:30;;;;;;;;;;;;;;;20.07;47.33;99974.56;2061321;28;2077;-68
2024/03/26 01:29:30;;;;;;;;;;;;;;;20.06;47.15;99967.34;2063555;28;2192;-67
2024/03/26 01:30:31;;;;;;;;;;;;;;;20.07;47.29;99970.97;2058096;28;6375;-67
2024/03/26 01:31:31;;;;;;;;;;;;;;;20.08;47.42;99966.69;2060095;28;2303;-67
2024/03/26 01:32:32;;;;;;;;;;;;;;;20.06;47.29;99963.75;2060986;28;2580;-68
2024/03/26 01:33:32;;;;;;;;;;;;;;;20.07;47.38;99971.69;2070223;28;2094;-68
2024/03/26 01:34:33;;;;;;;;;;;;;;;20.06;47.19;99961.59;2068247;28;2531;-68
2024/03/26 01:35:33;;;;;;;;;;;;;;;20.07;47.29;99965.22;2061342;28;1653;-68
2024/03/26 01:36:33;;;;;;;;;;;;;;;20.06;47.20;99970.22;2060010;28;2366;-67
2024/03/26 01:37:34;;;;;;;;;;;;;;;20.05;47.31;99968.75;2059543;28;2148;-67
2024/03/26 01:38:34;;;;;;;;;;;;;;;20.05;47.20;99965.16;2067662;28;1674;-68
2024/03/26 01:39:35;;;;;;;;;;;;;;;20.06;47.33;99969.50;2066115;28;2080;-68
2024/03/26 01:40:35;;;;;;;;;;;;;;;20.05;47.39;99954.41;2060376;28;2037;-67
2024/03/26 01:41:36;;;;;;;;;;;;;;;20.04;47.34;99955.06;2059386;28;2226;-68
2024/03/26 01:42:36;;;;;;;;;;;;;;;20.04;47.26;99961.56;2069171;28;1604;-68
2024/03/26 01:43:37;;;;;;;;;;;;;;;20.04;47.15;99961.56;2068481;28;2111;-68
2024/03/26 01:44:37;;;;;;;;;;;;;;;20.03;47.19;99954.31;2058613;28;2290;-68
2024/03/26 01:45:38;;;;;;;;;;;;;;;20.02;47.19;99958.59;2061010;28;2162;-68
2024/03/26 01:46:38;;;;;;;;;;;;;;;20.03;47.17;99953.59;2069604;28;1671;-68
2024/03/26 01:47:39;;;;;;;;;;;;;;;20.02;47.11;99952.09;2070395;28;2117;-67
2024/03/26 01:48:40;;;;;;;;;;;;;;;20.02;47.29;99955.75;2061062;28;2174;-67
2024/03/26 01:49:40;;;;;;;;;;;;;;;20.02;47.13;99958.59;2060750;28;2562;-67
2024/03/26 01:50:41;;;;;;;;;;;;;;;20.02;47.21;99958.59;2060965;28;2107;-67
2024/03/26 01:51:43;;;;;;;;;;;;;;;20.03;47.17;99953.59;2066960;28;2332;-67
2024/03/26 01:52:44;;;;;;;;;;;;;;;20.04;47.38;99961.56;2068804;28;2401;-68
2024/03/26 01:53:45;;;;;;;;;;;;;;;20.03;47.46;99948.56;2062362;28;2147;-67
2024/03/26 01:54:46;;;;;;;;;;;;;;;20.04;47.41;99955.81;2060417;28;2092;-67
2024/03/26 01:55:47;;;;;;;;;;;;;;;20.05;47.41;99956.53;2062233;28;2657;-68
2024/03/26 01:56:48;;;;;;;;;;;;;;;20.04;47.32;99955.81;2062011;28;2080;-67
2024/03/26 01:57:49;;;;;;;;;;;;;;;20.05;47.26;99957.28;2062322;28;2313;-67
2024/03/26 01:58:49;;;;;;;;;;;;;;;20.05;47.23;99948.66;2069199;28;1768;-68
2024/03/26 01:59:52;;;;;;;;;;;;;;;20.05;47.22;99957.28;2069596;28;2183;-67
2024/03/26 02:00:52;;;;;;;;;;;;;;;20.05;47.25;99951.53;2060112;28;6254;-68
2024/03/26 02:01:52;;;;;;;;;;;;;;;20.05;47.26;99945.78;2062488;28;2493;-67
2024/03/26 02:02:53;;;;;;;;;;;;;;;20.06;47.25;99952.25;2061222;28;2094;-68
2024/03/26 02:03:53;;;;;;;;;;;;;;;20.06;47.39;99952.25;2061362;28;2214;-68
2024/03/26 02:04:54;;;;;;;;;;;;;;;20.06;47.40;99947.22;2062985;28;1661;-68
2024/03/26 02:05:54;;;;;;;;;;;;;;;20.06;47.21;99947.22;2069701;28;1662;-67
2024/03/26 02:06:54;;;;;;;;;;;;;;;20.07;47.21;99951.59;2067361;28;2344;-68
2024/03/26 02:07:56;;;;;;;;;;;;;;;20.06;47.39;99947.22;2064795;28;1641;-67
2024/03/26 02:08:58;;;;;;;;;;;;;;;20.07;47.29;99948.00;2063188;28;2096;-67
2024/03/26 02:09:58;;;;;;;;;;;;;;;20.07;47.26;99948.00;2059754;28;2111;-68
2024/03/26 02:10:59;;;;;;;;;;;;;;;20.06;47.29;99952.97;2060731;28;2103;-68
2024/03/26 02:11:59;;;;;;;;;;;;;;;20.05;47.23;99945.78;2062503;28;2096;-67
2024/03/26 02:12:59;;;;;;;;;;;;;;;20.06;47.38;99955.84;2058943;28;2274;-68
2024/03/26 02:14:00;;;;;;;;;;;;;;;20.06;47.19;99952.97;2062098;28;2315;-67
2024/03/26 02:15:00;;;;;;;;;;;;;;;20.06;47.26;99952.25;2062221;28;1586;-68
2024/03/26 02:16:01;;;;;;;;;;;;;;;20.05;47.32;99945.78;2061163;28;2085;-67
2024/03/26 02:17:03;;;;;;;;;;;;;;;20.06;47.28;99952.25;2066754;28;2221;-68
2024/03/26 02:18:04;;;;;;;;;;;;;;;20.05;47.21;99954.41;2067467;28;1647;-68
2024/03/26 02:19:04;;;;;;;;;;;;;;;20.05;47.39;99951.53;2061680;28;1756;-68
2024/03/26 02:20:05;;;;;;;;;;;;;;;20.05;47.23;99945.78;2070110;28;1643;-68
2024/03/26 02:21:06;;;;;;;;;;;;;;;20.04;47.37;99950.06;2077913;28;1661;-68
2024/03/26 02:22:06;;;;;;;;;;;;;;;20.05;47.20;99940.03;2068135;28;2380;-67
2024/03/26 02:23:06;;;;;;;;;;;;;;;20.04;47.28;99938.56;2060062;28;2420;-67
2024/03/26 02:24:07;;;;;;;;;;;;;;;20.05;47.14;99950.78;2060554;28;2109;-67
2024/03/26 02:25:07;;;;;;;;;;;;;;;20.03;47.32;99937.06;2062725;28;1728;-67
2024/03/26 02:26:18;;;;;;;;;;;;;;;20.02;47.35;99941.38;2061761;28;1837;-68
2024/03/26 02:27:18;;;;;;;;;;;;;;;20.03;47.43;99933.47;2062363;28;2263;-67
2024/03/26 02:28:18;;;;;;;;;;;;;;;20.02;47.35;99935.63;2067196;28;2289;-68
2024/03/26 02:29:19;;;;;;;;;;;;;;;20.02;47.25;99938.50;2066873;28;2586;-67
2024/03/26 02:30:19;;;;;;;;;;;;;;;20.02;47.36;99941.38;2059198;28;8475;-68
2024/03/26 02:31:19;;;;;;;;;;;;;;;20.02;47.24;99937.75;2060232;28;1973;-67
2024/03/26 02:32:20;;;;;;;;;;;;;;;20.02;47.21;99935.63;2067758;28;2139;-68
2024/03/26 02:33:20;;;;;;;;;;;;;;;20.02;47.16;99935.63;2068825;28;2603;-67
2024/03/26 02:34:21;;;;;;;;;;;;;;;20.02;47.17;99923.38;2060395;28;2037;-68
2024/03/26 02:35:21;;;;;;;;;;;;;;;20.03;47.24;99931.34;2061430;28;2052;-68
2024/03/26 02:36:21;;;;;;;;;;;;;;;20.02;47.31;99924.13;2062206;28;1652;-67
2024/03/26 02:37:22;;;;;;;;;;;;;;;20.03;47.21;99919.09;2059847;28;2579;-67
2024/03/26 02:38:22;;;;;;;;;;;;;;;20.03;47.04;99921.97;2059679;28;1720;-67
2024/03/26 02:39:23;;;;;;;;;;;;;;;20.03;47.28;99916.97;2062060;28;2127;-68
2024/03/26 02:40:23;;;;;;;;;;;;;;;20.04;47.25;99927.06;2061123;28;2120;-67
2024/03/26 02:41:24;;;;;;;;;;;;;;;20.04;47.32;99926.31;2061353;28;2064;-67
2024/03/26 02:42:24;;;;;;;;;;;;;;;20.05;47.15;99922.06;2062104;28;2370;-67
2024/03/26 02:43:24;;;;;;;;;;;;;;;20.05;47.24;99919.91;2059561;28;2041;-67
2024/03/26 02:44:25;;;;;;;;;;;;;;;20.04;47.30;99924.19;2061509;28;2139;-67
2024/03/26 02:45:26;;;;;;;;;;;;;;;20.05;47.23;99928.53;2060818;28;2077;-67
2024/03/26 02:46:26;;;;;;;;;;;;;;;20.06;47.23;99927.13;2062213;28;2328;-68
2024/03/26 02:47:26;;;;;;;;;;;;;;;20.04;47.25;99921.31;2060496;28;2132;-67
2024/03/26 02:48:27;;;;;;;;;;;;;;;20.06;47.34;99932.13;2061723;28;1644;-68
2024/03/26 02:49:27;;;;;;;;;;;;;;;20.05;47.39;99931.41;2067508;28;2225;-68
2024/03/26 02:50:27;;;;;;;;;;;;;;;20.05;47.34;99927.81;2060154;28;2667;-67
2024/03/26 02:51:28;;;;;;;;;;;;;;;20.04;47.22;99938.56;2068948;28;1910;-67
2024/03/26 02:52:28;;;;;;;;;;;;;;;20.04;47.30;99927.06;2067441;28;2324;-68
2024/03/26 02:53:29;;;;;;;;;;;;;;;20.05;47.40;99933.53;2060063;28;2318;-68
2024/03/26 02:54:29;;;;;;;;;;;;;;;20.04;47.41;99932.06;2061088;28;2297;-68
2024/03/26 02:55:29;;;;;;;;;;;;;;;20.04;47.36;99932.06;2067977;28;1667;-68
2024/03/26 02:56:30;;;;;;;;;;;;;;;20.04;47.33;99934.94;2068053;28;2562;-68
2024/03/26 02:57:30;;;;;;;;;;;;;;;20.03;47.26;99925.59;2059953;28;2117;-67
2024/03/26 02:58:31;;;;;;;;;;;;;;;20.03;47.26;99919.84;2063028;28;1789;-67
2024/03/26 02:59:31;;;;;;;;;;;;;;;20.01;47.29;99931.25;2070111;28;2704;-67
2024/03/26 03:00:31;;;;;;;;;;;;;;;20.03;47.29;99924.84;2066071;28;6008;-67
2024/03/26 03:01:32;;;;;;;;;;;;;;;20.02;47.26;99921.25;2061386;28;1622;-67
2024/03/26 03:02:32;;;;;;;;;;;;;;;20.02;47.21;99918.38;2063413;28;1733;-68
2024/03/26 03:03:37;;;;;;;;;;;;;;;20.01;47.41;99925.50;2060529;28;2338;-67
2024/03/26 03:04:38;;;;;;;;;;;;;;;20.01;47.25;99916.91;2061810;28;2362;-68
2024/03/26 03:05:39;;;;;;;;;;;;;;;20.01;47.06;99916.16;2061659;28;1954;-68
2024/03/26 03:06:40;;;;;;;;;;;;;;;20.00;47.16;99912.56;2068665;28;1651;-68
2024/03/26 03:07:40;;;;;;;;;;;;;;;20.01;47.10;99916.91;2060358;28;2354;-67
2024/03/26 03:08:41;;;;;;;;;;;;;;;20.00;47.15;99912.56;2052086;28;2042;-68
2024/03/26 03:09:45;;;;;;;;;;;;;;;20.00;47.29;99921.19;2060295;28;2235;-67
2024/03/26 03:10:46;;;;;;;;;;;;;;;19.99;47.22;99907.47;2064869;28;1994;-67
2024/03/26 03:11:46;;;;;;;;;;;;;;;19.99;47.21;99910.34;2061152;28;1989;-67
2024/03/26 03:12:46;;;;;;;;;;;;;;;19.98;47.22;99912.50;2066598;28;1714;-63
2024/03/26 03:13:47;;;;;;;;;;;;;;;19.99;47.20;99913.94;2066773;28;2082;-68
2024/03/26 03:14:47;;;;;;;;;;;;;;;19.99;47.26;99908.22;2060978;28;2040;-70
2024/03/26 03:15:48;;;;;;;;;;;;;;;19.98;47.07;99909.63;2060270;28;1827;-65
2024/03/26 03:16:48;;;;;;;;;;;;;;;19.99;47.22;99913.22;2068899;28;1608;-63
2024/03/26 03:17:48;;;;;;;;;;;;;;;19.98;47.34;99906.75;2075060;28;2328;-62
2024/03/26 03:18:49;;;;;;;;;;;;;;;19.99;47.13;99913.22;2060188;28;2124;-62
2024/03/26 03:19:49;;;;;;;;;;;;;;;19.98;47.05;99912.50;2054407;28;2172;-62
2024/03/26 03:20:50;;;;;;;;;;;;;;;19.99;47.08;99908.22;2061988;28;2108;-63
2024/03/26 03:21:50;;;;;;;;;;;;;;;19.99;47.21;99908.22;2067905;28;2167;-62
2024/03/26 03:22:51;;;;;;;;;;;;;;;19.98;47.13;99906.75;2058084;28;2309;-63
2024/03/26 03:23:51;;;;;;;;;;;;;;;20.00;47.06;99908.97;2058120;28;2021;-62
2024/03/26 03:24:51;;;;;;;;;;;;;;;20.01;47.14;99914.03;2059245;28;2166;-63
2024/03/26 03:25:52;;;;;;;;;;;;;;;20.02;47.11;99903.25;2068583;28;1944;-63
2024/03/26 03:26:53;;;;;;;;;;;;;;;20.02;47.20;99915.50;2059381;28;1761;-63
2024/03/26 03:27:53;;;;;;;;;;;;;;;20.02;47.45;99900.38;2061626;28;1585;-63
2024/03/26 03:28:53;;;;;;;;;;;;;;;20.01;47.28;99905.41;2059743;28;2029;-62
2024/03/26 03:29:54;;;;;;;;;;;;;;;20.02;47.37;99901.13;2060881;28;1704;-63
2024/03/26 03:30:54;;;;;;;;;;;;;;;20.02;47.27;99906.88;2060413;28;6546;-62
2024/03/26 03:31:55;;;;;;;;;;;;;;;20.01;47.17;99902.53;2060398;28;2398;-62
2024/03/26 03:32:55;;;;;;;;;;;;;;;20.02;47.43;99906.13;2059192;28;2219;-63
2024/03/26 03:33:56;;;;;;;;;;;;;;;20.02;47.20;99901.13;2065343;28;1648;-62
2024/03/26 03:34:56;;;;;;;;;;;;;;;20.02;47.23;99897.50;2060404;28;2145;-62
2024/03/26 03:35:56;;;;;;;;;;;;;;;20.02;47.26;99895.41;2059615;28;2230;-62
2024/03/26 03:36:57;;;;;;;;;;;;;;;20.03;47.45;99893.25;2069496;28;1772;-62
2024/03/26 03:37:57;;;;;;;;;;;;;;;20.01;47.14;99908.28;2069352;28;2267;-63
2024/03/26 03:38:57;;;;;;;;;;;;;;;20.00;47.32;99901.06;2060516;28;2119;-62
2024/03/26 03:39:58;;;;;;;;;;;;;;;20.01;47.16;99896.06;2060926;28;2073;-62
2024/03/26 03:40:58;;;;;;;;;;;;;;;20.01;47.18;99899.66;2060501;28;2115;-63
2024/03/26 03:41:59;;;;;;;;;;;;;;;20.01;47.21;99898.94;2060487;28;1762;-62
2024/03/26 03:42:59;;;;;;;;;;;;;;;20.00;47.31;99898.19;2061651;28;2128;-63
2024/03/26 03:44:00;;;;;;;;;;;;;;;20.00;47.27;99898.19;2060951;28;1707;-62
2024/03/26 03:45:00;;;;;;;;;;;;;;;19.99;47.17;99896.72;2060497;28;2077;-62
2024/03/26 03:46:00;;;;;;;;;;;;;;;19.99;47.35;99893.13;2060775;28;2072;-63
2024/03/26 03:47:01;;;;;;;;;;;;;;;19.99;47.23;99895.97;2069255;28;1711;-63
2024/03/26 03:48:02;;;;;;;;;;;;;;;20.00;47.22;99894.59;2069556;28;1954;-62
2024/03/26 03:49:02;;;;;;;;;;;;;;;20.00;47.11;99889.56;2060205;28;1654;-62
2024/03/26 03:50:03;;;;;;;;;;;;;;;20.00;47.29;99891.72;2058926;28;1982;-63
2024/03/26 03:51:03;;;;;;;;;;;;;;;20.01;47.37;99881.69;2059049;28;2088;-63
2024/03/26 03:52:04;;;;;;;;;;;;;;;20.01;47.23;99887.44;2060252;28;2210;-63
2024/03/26 03:53:04;;;;;;;;;;;;;;;20.00;47.43;99883.84;2060621;28;2285;-63
2024/03/26 03:54:05;;;;;;;;;;;;;;;20.01;47.20;99885.28;2061050;28;2088;-63
2024/03/26 03:55:05;;;;;;;;;;;;;;;20.01;47.13;99887.44;2069037;28;2062;-63
2024/03/26 03:56:05;;;;;;;;;;;;;;;20.02;47.38;99883.91;2059501;28;2158;-62
2024/03/26 03:57:06;;;;;;;;;;;;;;;20.03;47.08;99884.63;2068932;28;1667;-63
2024/03/26 03:58:07;;;;;;;;;;;;;;;20.03;47.12;99881.75;2068094;28;1651;-63
2024/03/26 03:59:08;;;;;;;;;;;;;;;20.01;47.23;99873.78;2068855;28;1632;-63
2024/03/26 04:00:08;;;;;;;;;;;;;;;20.02;47.13;99883.91;2059047;28;6190;-62
2024/03/26 04:01:09;;;;;;;;;;;;;;;20.02;47.17;99872.41;2051061;28;2307;-63
2024/03/26 04:02:09;;;;;;;;;;;;;;;20.04;47.19;99875.34;2062691;28;2052;-63
2024/03/26 04:03:09;;;;;;;;;;;;;;;20.04;47.26;99881.09;2060173;28;2297;-63
2024/03/26 04:04:10;;;;;;;;;;;;;;;20.05;47.42;99879.69;2061310;28;2148;-62
2024/03/26 04:05:10;;;;;;;;;;;;;;;20.05;47.14;99876.06;2059925;28;2000;-63
2024/03/26 04:06:11;;;;;;;;;;;;;;;20.04;47.30;99878.22;2061671;28;1737;-62
2024/03/26 04:07:11;;;;;;;;;;;;;;;20.06;47.32;99877.53;2059823;28;2064;-62
2024/03/26 04:08:11;;;;;;;;;;;;;;;20.06;47.15;99889.75;2059526;28;2539;-62
2024/03/26 04:09:12;;;;;;;;;;;;;;;20.06;47.22;99875.38;2060386;28;1728;-63
2024/03/26 04:10:12;;;;;;;;;;;;;;;20.06;47.21;99872.50;2060653;28;2305;-63
2024/03/26 04:11:13;;;;;;;;;;;;;;;20.07;47.41;99876.16;2060828;28;1689;-62
2024/03/26 04:12:13;;;;;;;;;;;;;;;20.06;47.21;99871.78;2068007;28;2082;-62
2024/03/26 04:13:13;;;;;;;;;;;;;;;20.08;47.15;99868.97;2059940;28;2210;-62
2024/03/26 04:14:14;;;;;;;;;;;;;;;20.08;47.25;99860.34;2059389;28;2057;-62
2024/03/26 04:15:14;;;;;;;;;;;;;;;20.08;47.28;99869.72;2059945;28;2311;-62
2024/03/26 04:16:14;;;;;;;;;;;;;;;20.08;47.18;99875.44;2069574;28;1632;-63
2024/03/26 04:17:15;;;;;;;;;;;;;;;20.09;47.12;99876.94;2060704;28;2179;-63
2024/03/26 04:18:15;;;;;;;;;;;;;;;20.09;47.11;99876.94;2060424;28;2374;-63
2024/03/26 04:19:16;;;;;;;;;;;;;;;20.08;47.27;99875.44;2067324;28;2095;-62
2024/03/26 04:20:16;;;;;;;;;;;;;;;20.08;47.14;99875.44;2068281;28;2142;-63
2024/03/26 04:21:16;;;;;;;;;;;;;;;20.09;47.23;99882.69;2060896;28;1625;-63
2024/03/26 04:22:17;;;;;;;;;;;;;;;20.11;47.17;99884.13;2066648;28;2327;-63
2024/03/26 04:23:17;;;;;;;;;;;;;;;20.10;47.15;99877.66;2066547;28;2375;-63
2024/03/26 04:24:18;;;;;;;;;;;;;;;20.11;47.24;99884.88;2060560;28;2199;-62
2024/03/26 04:25:18;;;;;;;;;;;;;;;20.12;47.23;99879.88;2062209;28;1729;-62
2024/03/26 04:26:18;;;;;;;;;;;;;;;20.11;47.13;99873.38;2067519;28;2106;-63
2024/03/26 04:27:19;;;;;;;;;;;;;;;20.12;47.16;99874.13;2068056;28;1706;-63
2024/03/26 04:28:19;;;;;;;;;;;;;;;20.12;47.14;99868.38;2060425;28;2123;-63
2024/03/26 04:29:19;;;;;;;;;;;;;;;20.12;47.11;99868.38;2068041;28;1922;-63
2024/03/26 04:30:20;;;;;;;;;;;;;;;20.12;47.19;99869.13;2060727;28;6095;-63
2024/03/26 04:31:20;;;;;;;;;;;;;;;20.12;47.30;99868.38;2045068;28;2111;-62
2024/03/26 04:32:21;;;;;;;;;;;;;;;20.12;47.27;99869.13;2054879;28;1907;-62
2024/03/26 04:33:21;;;;;;;;;;;;;;;20.12;47.24;99868.38;2052657;28;2244;-62
2024/03/26 04:34:21;;;;;;;;;;;;;;;20.11;47.35;99867.63;2042873;28;2118;-62
2024/03/26 04:35:22;;;;;;;;;;;;;;;20.13;47.25;99869.84;2053273;28;2138;-63
2024/03/26 04:36:22;;;;;;;;;;;;;;;20.12;47.23;99865.50;2053128;28;1793;-62
2024/03/26 04:37:23;;;;;;;;;;;;;;;20.12;47.23;99871.25;2044871;28;2088;-63
2024/03/26 04:38:23;;;;;;;;;;;;;;;20.12;47.35;99874.13;2043460;28;2112;-62
2024/03/26 04:39:24;;;;;;;;;;;;;;;20.12;47.29;99862.63;2043646;28;2615;-62
2024/03/26 04:40:24;;;;;;;;;;;;;;;20.11;47.29;99855.41;2044967;28;2296;-62
2024/03/26 04:41:26;;;;;;;;;;;;;;;20.09;47.14;99859.69;2044637;28;2107;-63
2024/03/26 04:42:27;;;;;;;;;;;;;;;20.09;47.23;99862.56;2045827;28;1560;-62
2024/03/26 04:43:28;;;;;;;;;;;;;;;20.09;47.35;99853.94;2050107;28;2196;-63
2024/03/26 04:44:28;;;;;;;;;;;;;;;20.09;47.25;99851.06;2051726;28;2688;-63
2024/03/26 04:45:29;;;;;;;;;;;;;;;20.11;47.16;99855.41;2046651;28;2172;-62
2024/03/26 04:46:30;;;;;;;;;;;;;;;20.11;47.22;99861.16;2046807;28;2198;-62
2024/03/26 04:47:30;;;;;;;;;;;;;;;20.10;47.22;99857.56;2045949;28;1603;-62
2024/03/26 04:48:30;;;;;;;;;;;;;;;20.10;47.41;99860.41;2043805;28;2081;-63
2024/03/26 04:49:31;;;;;;;;;;;;;;;20.11;47.25;99855.41;2045677;28;2155;-62
2024/03/26 04:50:31;;;;;;;;;;;;;;;20.10;47.25;99857.56;2045667;28;2126;-62
2024/03/26 04:51:31;;;;;;;;;;;;;;;20.11;47.22;99858.28;2051594;28;2262;-62
2024/03/26 04:52:32;;;;;;;;;;;;;;;20.11;47.24;99858.28;2046928;28;1984;-62
2024/03/26 04:53:32;;;;;;;;;;;;;;;20.11;47.15;99855.41;2041870;28;2429;-63
2024/03/26 04:54:33;;;;;;;;;;;;;;;20.11;47.29;99861.88;2044773;28;2046;-63
2024/03/26 04:55:33;;;;;;;;;;;;;;;20.12;47.26;99862.63;2044365;28;2158;-63
2024/03/26 04:56:34;;;;;;;;;;;;;;;20.11;47.22;99855.41;2054622;28;2140;-63
2024/03/26 04:57:34;;;;;;;;;;;;;;;20.12;47.22;99854.00;2042865;28;2335;-63
2024/03/26 04:58:35;;;;;;;;;;;;;;;20.12;47.29;99851.88;2049816;28;2378;-63
2024/03/26 04:59:36;;;;;;;;;;;;;;;20.13;47.24;99858.34;2050516;28;2205;-62
2024/03/26 05:00:36;;;;;;;;;;;;;;;20.12;47.23;99851.88;2042183;28;6345;-62
2024/03/26 05:01:37;;;;;;;;;;;;;;;20.13;47.30;99852.59;2042480;28;2190;-62
2024/03/26 05:02:37;;;;;;;;;;;;;;;20.13;47.41;99849.72;2043491;28;2257;-62
2024/03/26 05:03:37;;;;;;;;;;;;;;;20.14;47.09;99859.81;2043927;28;2234;-63
2024/03/26 05:04:38;;;;;;;;;;;;;;;20.15;47.13;99852.66;2053788;28;2419;-63
2024/03/26 05:05:38;;;;;;;;;;;;;;;20.14;47.31;99854.81;2045973;28;1692;-62
2024/03/26 05:06:39;;;;;;;;;;;;;;;20.15;47.38;99856.25;2046425;28;1631;-62
2024/03/26 05:07:39;;;;;;;;;;;;;;;20.16;47.19;99857.00;2044514;28;1739;-64
2024/03/26 05:08:41;;;;;;;;;;;;;;;20.15;47.07;99861.28;2044648;28;1930;-62
2024/03/26 05:09:41;;;;;;;;;;;;;;;20.16;47.08;99857.00;2051937;28;2649;-62
2024/03/26 05:10:41;;;;;;;;;;;;;;;20.17;47.22;99858.47;2050732;28;2275;-62
2024/03/26 05:11:42;;;;;;;;;;;;;;;20.16;47.30;99852.00;2043854;28;2289;-62
2024/03/26 05:12:42;;;;;;;;;;;;;;;20.17;47.29;99859.19;2054519;28;1553;-62
2024/03/26 05:13:42;;;;;;;;;;;;;;;20.18;47.38;99854.19;2051249;28;2296;-63
2024/03/26 05:14:43;;;;;;;;;;;;;;;20.19;47.45;99861.41;2051009;28;1553;-63
2024/03/26 05:15:43;;;;;;;;;;;;;;;20.18;47.30;99848.44;2046276;28;1647;-62
2024/03/26 05:16:44;;;;;;;;;;;;;;;20.17;47.38;99853.44;2054701;28;1554;-62
2024/03/26 05:17:44;;;;;;;;;;;;;;;20.18;47.54;99857.06;2047637;28;1636;-63
2024/03/26 05:18:44;;;;;;;;;;;;;;;20.19;47.40;99855.66;2044990;28;2046;-63